sensor_id;sensor_type;location;lat;lon;timestamp;temperature;humidity
75719;DHT22;64340;48.534;-3.036;2023-09-19T00:00:34;20.50;68.90
75719;DHT22;64340;48.534;-3.036;2023-09-19T00:03:01;20.50;68.80
75719;DHT22;64340;48.534;-3.036;2023-09-19T00:05:27;20.50;68.70
75719;DHT22;64340;48.534;-3.036;2023-09-19T00:07:56;20.50;68.80
75719;DHT22;64340;48.534;-3.036;2023-09-19T00:10:24;20.50;68.70
75719;DHT22;64340;48.534;-3.036;2023-09-19T00:12:50;20.50;68.70
75719;DHT22;64340;48.534;-3.036;2023-09-19T00:15:17;20.50;68.80
75719;DHT22;64340;48.534;-3.036;2023-09-19T00:17:43;20.50;68.70
75719;DHT22;64340;48.534;-3.036;2023-09-19T00:20:09;20.50;68.80
75719;DHT22;64340;48.534;-3.036;2023-09-19T00:22:41;20.50;68.70
75719;DHT22;64340;48.534;-3.036;2023-09-19T00:25:08;20.50;68.80
75719;DHT22;64340;48.534;-3.036;2023-09-19T00:27:35;20.50;68.80
75719;DHT22;64340;48.534;-3.036;2023-09-19T00:30:01;20.50;68.70
75719;DHT22;64340;48.534;-3.036;2023-09-19T00:32:26;20.50;68.70
75719;DHT22;64340;48.534;-3.036;2023-09-19T00:34:57;20.50;68.70
75719;DHT22;64340;48.534;-3.036;2023-09-19T00:37:23;20.50;68.80
75719;DHT22;64340;48.534;-3.036;2023-09-19T00:39:49;20.50;68.90
75719;DHT22;64340;48.534;-3.036;2023-09-19T00:42:19;20.40;68.80
75719;DHT22;64340;48.534;-3.036;2023-09-19T00:44:46;20.50;68.90
75719;DHT22;64340;48.534;-3.036;2023-09-19T00:47:12;20.40;68.90
75719;DHT22;64340;48.534;-3.036;2023-09-19T00:49:45;20.40;68.90
75719;DHT22;64340;48.534;-3.036;2023-09-19T00:52:15;20.40;68.90
75719;DHT22;64340;48.534;-3.036;2023-09-19T00:54:45;20.40;69.00
75719;DHT22;64340;48.534;-3.036;2023-09-19T00:57:11;20.40;68.80
75719;DHT22;64340;48.534;-3.036;2023-09-19T00:59:37;20.40;68.90
75719;DHT22;64340;48.534;-3.036;2023-09-19T01:02:02;20.40;68.80
75719;DHT22;64340;48.534;-3.036;2023-09-19T01:04:28;20.40;68.70
75719;DHT22;64340;48.534;-3.036;2023-09-19T01:06:54;20.40;68.50
75719;DHT22;64340;48.534;-3.036;2023-09-19T01:09:20;20.40;68.70
75719;DHT22;64340;48.534;-3.036;2023-09-19T01:11:47;20.30;68.70
75719;DHT22;64340;48.534;-3.036;2023-09-19T01:17:00;20.40;68.70
75719;DHT22;64340;48.534;-3.036;2023-09-19T01:22:00;20.30;68.70
75719;DHT22;64340;48.534;-3.036;2023-09-19T01:30:06;20.30;68.60
75719;DHT22;64340;48.534;-3.036;2023-09-19T01:32:32;20.30;68.70
75719;DHT22;64340;48.534;-3.036;2023-09-19T01:34:58;20.30;68.70
75719;DHT22;64340;48.534;-3.036;2023-09-19T01:37:30;20.30;68.60
75719;DHT22;64340;48.534;-3.036;2023-09-19T01:40:04;20.30;68.70
75719;DHT22;64340;48.534;-3.036;2023-09-19T01:45:03;20.30;68.60
75719;DHT22;64340;48.534;-3.036;2023-09-19T01:47:34;20.30;68.70
75719;DHT22;64340;48.534;-3.036;2023-09-19T01:50:11;20.30;68.70
75719;DHT22;64340;48.534;-3.036;2023-09-19T01:52:40;20.30;68.60
75719;DHT22;64340;48.534;-3.036;2023-09-19T01:55:09;20.30;68.70
75719;DHT22;64340;48.534;-3.036;2023-09-19T01:57:36;20.30;68.70
75719;DHT22;64340;48.534;-3.036;2023-09-19T02:00:06;20.30;68.80
75719;DHT22;64340;48.534;-3.036;2023-09-19T02:02:36;20.30;68.70
75719;DHT22;64340;48.534;-3.036;2023-09-19T02:05:02;20.30;68.90
75719;DHT22;64340;48.534;-3.036;2023-09-19T02:07:29;20.30;68.80
75719;DHT22;64340;48.534;-3.036;2023-09-19T02:10:00;20.30;68.90
75719;DHT22;64340;48.534;-3.036;2023-09-19T02:12:26;20.30;68.80
75719;DHT22;64340;48.534;-3.036;2023-09-19T02:14:51;20.30;68.80
75719;DHT22;64340;48.534;-3.036;2023-09-19T02:17:17;20.30;68.90
75719;DHT22;64340;48.534;-3.036;2023-09-19T02:19:42;20.30;68.90
75719;DHT22;64340;48.534;-3.036;2023-09-19T02:22:08;20.30;68.90
75719;DHT22;64340;48.534;-3.036;2023-09-19T02:24:36;20.30;68.90
75719;DHT22;64340;48.534;-3.036;2023-09-19T02:27:02;20.30;68.80
75719;DHT22;64340;48.534;-3.036;2023-09-19T02:29:29;20.30;68.80
75719;DHT22;64340;48.534;-3.036;2023-09-19T02:31:55;20.30;68.90
75719;DHT22;64340;48.534;-3.036;2023-09-19T02:34:21;20.30;69.00
75719;DHT22;64340;48.534;-3.036;2023-09-19T02:36:47;20.30;68.80
75719;DHT22;64340;48.534;-3.036;2023-09-19T02:39:13;20.30;68.90
75719;DHT22;64340;48.534;-3.036;2023-09-19T02:41:38;20.30;68.90
75719;DHT22;64340;48.534;-3.036;2023-09-19T02:44:04;20.30;68.90
75719;DHT22;64340;48.534;-3.036;2023-09-19T02:46:35;20.30;69.00
75719;DHT22;64340;48.534;-3.036;2023-09-19T02:49:01;20.30;68.90
75719;DHT22;64340;48.534;-3.036;2023-09-19T02:51:28;20.30;68.90
75719;DHT22;64340;48.534;-3.036;2023-09-19T02:53:54;20.30;69.00
75719;DHT22;64340;48.534;-3.036;2023-09-19T02:56:20;20.30;68.80
75719;DHT22;64340;48.534;-3.036;2023-09-19T02:58:45;20.30;68.90
75719;DHT22;64340;48.534;-3.036;2023-09-19T03:01:11;20.30;68.90
75719;DHT22;64340;48.534;-3.036;2023-09-19T03:03:37;20.30;68.90
75719;DHT22;64340;48.534;-3.036;2023-09-19T03:06:05;20.30;68.90
75719;DHT22;64340;48.534;-3.036;2023-09-19T03:08:31;20.30;68.90
75719;DHT22;64340;48.534;-3.036;2023-09-19T03:10:58;20.30;68.90
75719;DHT22;64340;48.534;-3.036;2023-09-19T03:13:24;20.20;68.90
75719;DHT22;64340;48.534;-3.036;2023-09-19T03:15:49;20.30;68.90
75719;DHT22;64340;48.534;-3.036;2023-09-19T03:18:15;20.20;69.00
75719;DHT22;64340;48.534;-3.036;2023-09-19T03:20:41;20.20;69.00
75719;DHT22;64340;48.534;-3.036;2023-09-19T03:23:07;20.20;69.00
75719;DHT22;64340;48.534;-3.036;2023-09-19T03:25:34;20.20;69.00
75719;DHT22;64340;48.534;-3.036;2023-09-19T03:28:00;20.20;69.00
75719;DHT22;64340;48.534;-3.036;2023-09-19T03:30:26;20.20;69.00
75719;DHT22;64340;48.534;-3.036;2023-09-19T03:32:52;20.20;69.00
75719;DHT22;64340;48.534;-3.036;2023-09-19T03:35:17;20.20;69.00
75719;DHT22;64340;48.534;-3.036;2023-09-19T03:37:43;20.20;69.00
75719;DHT22;64340;48.534;-3.036;2023-09-19T03:40:09;20.20;69.00
75719;DHT22;64340;48.534;-3.036;2023-09-19T03:42:39;20.20;69.00
75719;DHT22;64340;48.534;-3.036;2023-09-19T03:45:05;20.20;68.90
75719;DHT22;64340;48.534;-3.036;2023-09-19T03:47:31;20.20;69.00
75719;DHT22;64340;48.534;-3.036;2023-09-19T03:49:56;20.20;69.00
75719;DHT22;64340;48.534;-3.036;2023-09-19T03:52:22;20.20;69.00
75719;DHT22;64340;48.534;-3.036;2023-09-19T03:54:47;20.20;69.00
75719;DHT22;64340;48.534;-3.036;2023-09-19T03:57:14;20.20;69.00
75719;DHT22;64340;48.534;-3.036;2023-09-19T03:59:42;20.20;68.90
75719;DHT22;64340;48.534;-3.036;2023-09-19T04:02:11;20.10;68.90
75719;DHT22;64340;48.534;-3.036;2023-09-19T04:04:47;20.20;69.00
75719;DHT22;64340;48.534;-3.036;2023-09-19T04:07:13;20.20;69.00
75719;DHT22;64340;48.534;-3.036;2023-09-19T04:09:38;20.10;68.90
75719;DHT22;64340;48.534;-3.036;2023-09-19T04:12:04;20.20;68.90
75719;DHT22;64340;48.534;-3.036;2023-09-19T04:14:30;20.20;69.10
75719;DHT22;64340;48.534;-3.036;2023-09-19T04:16:56;20.20;69.00
75719;DHT22;64340;48.534;-3.036;2023-09-19T04:19:21;20.20;68.90
75719;DHT22;64340;48.534;-3.036;2023-09-19T04:21:47;20.20;68.90
75719;DHT22;64340;48.534;-3.036;2023-09-19T04:24:13;20.30;68.80
75719;DHT22;64340;48.534;-3.036;2023-09-19T04:26:39;20.20;68.80
75719;DHT22;64340;48.534;-3.036;2023-09-19T04:29:04;20.30;68.80
75719;DHT22;64340;48.534;-3.036;2023-09-19T04:31:31;20.20;69.00
75719;DHT22;64340;48.534;-3.036;2023-09-19T04:33:57;20.20;69.10
75719;DHT22;64340;48.534;-3.036;2023-09-19T04:36:24;20.10;69.00
75719;DHT22;64340;48.534;-3.036;2023-09-19T04:38:50;20.20;69.20
75719;DHT22;64340;48.534;-3.036;2023-09-19T04:41:15;20.20;69.10
75719;DHT22;64340;48.534;-3.036;2023-09-19T04:43:41;20.20;69.20
75719;DHT22;64340;48.534;-3.036;2023-09-19T04:46:07;20.20;69.30
75719;DHT22;64340;48.534;-3.036;2023-09-19T04:48:32;20.10;69.40
75719;DHT22;64340;48.534;-3.036;2023-09-19T04:51:00;20.20;69.30
75719;DHT22;64340;48.534;-3.036;2023-09-19T04:53:25;20.20;69.30
75719;DHT22;64340;48.534;-3.036;2023-09-19T04:55:51;20.20;69.30
75719;DHT22;64340;48.534;-3.036;2023-09-19T04:58:21;20.20;69.30
75719;DHT22;64340;48.534;-3.036;2023-09-19T05:00:46;20.20;69.30
75719;DHT22;64340;48.534;-3.036;2023-09-19T05:03:12;20.20;69.40
75719;DHT22;64340;48.534;-3.036;2023-09-19T05:05:38;20.20;69.60
75719;DHT22;64340;48.534;-3.036;2023-09-19T05:08:04;20.00;69.60
75719;DHT22;64340;48.534;-3.036;2023-09-19T05:10:31;20.00;70.00
75719;DHT22;64340;48.534;-3.036;2023-09-19T05:12:57;20.10;70.20
75719;DHT22;64340;48.534;-3.036;2023-09-19T05:15:22;20.10;70.30
75719;DHT22;64340;48.534;-3.036;2023-09-19T05:17:51;20.10;70.50
75719;DHT22;64340;48.534;-3.036;2023-09-19T05:20:17;20.10;70.70
75719;DHT22;64340;48.534;-3.036;2023-09-19T05:23:00;20.20;70.80
75719;DHT22;64340;48.534;-3.036;2023-09-19T05:25:28;20.10;70.80
75719;DHT22;64340;48.534;-3.036;2023-09-19T05:27:56;20.10;71.00
75719;DHT22;64340;48.534;-3.036;2023-09-19T05:30:23;20.10;71.10
75719;DHT22;64340;48.534;-3.036;2023-09-19T05:32:48;20.00;71.10
75719;DHT22;64340;48.534;-3.036;2023-09-19T05:35:14;20.00;71.20
75719;DHT22;64340;48.534;-3.036;2023-09-19T05:37:39;20.10;71.30
75719;DHT22;64340;48.534;-3.036;2023-09-19T05:40:05;20.00;71.30
75719;DHT22;64340;48.534;-3.036;2023-09-19T05:42:32;20.00;71.50
75719;DHT22;64340;48.534;-3.036;2023-09-19T05:44:58;20.00;71.60
75719;DHT22;64340;48.534;-3.036;2023-09-19T05:47:23;20.00;71.70
75719;DHT22;64340;48.534;-3.036;2023-09-19T05:49:50;20.00;71.70
75719;DHT22;64340;48.534;-3.036;2023-09-19T05:52:16;20.00;71.80
75719;DHT22;64340;48.534;-3.036;2023-09-19T05:54:43;20.00;71.70
75719;DHT22;64340;48.534;-3.036;2023-09-19T05:57:08;20.00;71.70
75719;DHT22;64340;48.534;-3.036;2023-09-19T05:59:37;20.00;71.80
75719;DHT22;64340;48.534;-3.036;2023-09-19T06:02:05;19.90;71.80
75719;DHT22;64340;48.534;-3.036;2023-09-19T06:04:31;20.00;71.70
75719;DHT22;64340;48.534;-3.036;2023-09-19T06:06:57;19.70;70.20
75719;DHT22;64340;48.534;-3.036;2023-09-19T06:09:23;19.40;70.10
75719;DHT22;64340;48.534;-3.036;2023-09-19T06:11:49;19.20;70.20
75719;DHT22;64340;48.534;-3.036;2023-09-19T06:14:14;19.00;70.60
75719;DHT22;64340;48.534;-3.036;2023-09-19T06:16:43;18.80;71.00
75719;DHT22;64340;48.534;-3.036;2023-09-19T06:19:08;18.80;71.00
75719;DHT22;64340;48.534;-3.036;2023-09-19T06:21:34;18.80;71.20
75719;DHT22;64340;48.534;-3.036;2023-09-19T06:23:59;19.00;71.10
75719;DHT22;64340;48.534;-3.036;2023-09-19T06:26:25;19.10;70.90
75719;DHT22;64340;48.534;-3.036;2023-09-19T06:28:52;19.10;70.90
75719;DHT22;64340;48.534;-3.036;2023-09-19T06:31:18;19.20;70.90
75719;DHT22;64340;48.534;-3.036;2023-09-19T06:33:43;19.20;70.80
75719;DHT22;64340;48.534;-3.036;2023-09-19T06:36:09;19.20;70.80
75719;DHT22;64340;48.534;-3.036;2023-09-19T06:38:35;19.30;70.70
75719;DHT22;64340;48.534;-3.036;2023-09-19T06:41:02;19.30;70.90
75719;DHT22;64340;48.534;-3.036;2023-09-19T06:43:30;19.30;70.80
75719;DHT22;64340;48.534;-3.036;2023-09-19T06:45:56;19.40;70.80
75719;DHT22;64340;48.534;-3.036;2023-09-19T06:48:22;19.40;70.90
75719;DHT22;64340;48.534;-3.036;2023-09-19T06:50:50;19.40;70.80
75719;DHT22;64340;48.534;-3.036;2023-09-19T06:53:16;19.40;71.10
75719;DHT22;64340;48.534;-3.036;2023-09-19T06:55:42;19.40;71.00
75719;DHT22;64340;48.534;-3.036;2023-09-19T06:58:09;19.40;71.20
75719;DHT22;64340;48.534;-3.036;2023-09-19T07:00:36;19.50;71.10
75719;DHT22;64340;48.534;-3.036;2023-09-19T07:03:03;19.50;71.20
75719;DHT22;64340;48.534;-3.036;2023-09-19T07:05:32;19.50;71.10
75719;DHT22;64340;48.534;-3.036;2023-09-19T07:08:00;19.50;71.20
75719;DHT22;64340;48.534;-3.036;2023-09-19T07:10:27;19.50;71.20
75719;DHT22;64340;48.534;-3.036;2023-09-19T07:15:22;19.50;71.10
75719;DHT22;64340;48.534;-3.036;2023-09-19T07:17:53;19.50;71.00
75719;DHT22;64340;48.534;-3.036;2023-09-19T07:20:20;19.50;71.10
75719;DHT22;64340;48.534;-3.036;2023-09-19T07:22:45;19.50;70.90
75719;DHT22;64340;48.534;-3.036;2023-09-19T07:25:12;19.50;70.90
75719;DHT22;64340;48.534;-3.036;2023-09-19T07:27:40;19.50;70.90
75719;DHT22;64340;48.534;-3.036;2023-09-19T07:30:05;19.60;70.80
75719;DHT22;64340;48.534;-3.036;2023-09-19T07:32:31;19.60;70.90
75719;DHT22;64340;48.534;-3.036;2023-09-19T07:34:57;19.60;70.80
75719;DHT22;64340;48.534;-3.036;2023-09-19T07:37:22;19.60;70.80
75719;DHT22;64340;48.534;-3.036;2023-09-19T07:39:51;19.60;70.80
75719;DHT22;64340;48.534;-3.036;2023-09-19T07:42:16;19.70;70.70
75719;DHT22;64340;48.534;-3.036;2023-09-19T07:44:43;19.70;70.70
75719;DHT22;64340;48.534;-3.036;2023-09-19T07:47:13;19.70;70.60
75719;DHT22;64340;48.534;-3.036;2023-09-19T07:49:39;19.70;70.60
75719;DHT22;64340;48.534;-3.036;2023-09-19T07:52:04;19.70;70.60
75719;DHT22;64340;48.534;-3.036;2023-09-19T07:54:30;19.70;70.60
75719;DHT22;64340;48.534;-3.036;2023-09-19T07:57:01;19.80;70.60
75719;DHT22;64340;48.534;-3.036;2023-09-19T07:59:26;19.80;70.50
75719;DHT22;64340;48.534;-3.036;2023-09-19T08:01:52;19.80;70.60
75719;DHT22;64340;48.534;-3.036;2023-09-19T08:04:18;19.80;70.50
75719;DHT22;64340;48.534;-3.036;2023-09-19T08:06:44;19.80;70.50
75719;DHT22;64340;48.534;-3.036;2023-09-19T08:09:10;19.80;70.70
75719;DHT22;64340;48.534;-3.036;2023-09-19T08:11:37;19.90;70.70
75719;DHT22;64340;48.534;-3.036;2023-09-19T08:14:02;19.90;70.60
75719;DHT22;64340;48.534;-3.036;2023-09-19T08:16:28;19.90;70.60
75719;DHT22;64340;48.534;-3.036;2023-09-19T08:18:53;19.90;70.70
75719;DHT22;64340;48.534;-3.036;2023-09-19T08:21:23;19.90;70.70
75719;DHT22;64340;48.534;-3.036;2023-09-19T08:23:49;19.90;70.70
75719;DHT22;64340;48.534;-3.036;2023-09-19T08:26:15;19.90;70.60
75719;DHT22;64340;48.534;-3.036;2023-09-19T08:28:40;19.90;70.50
75719;DHT22;64340;48.534;-3.036;2023-09-19T08:31:06;20.00;70.40
75719;DHT22;64340;48.534;-3.036;2023-09-19T08:33:32;20.00;70.40
75719;DHT22;64340;48.534;-3.036;2023-09-19T08:35:59;20.00;70.40
75719;DHT22;64340;48.534;-3.036;2023-09-19T08:38:24;20.00;70.40
75719;DHT22;64340;48.534;-3.036;2023-09-19T08:40:58;20.00;70.30
75719;DHT22;64340;48.534;-3.036;2023-09-19T08:43:25;20.00;70.30
75719;DHT22;64340;48.534;-3.036;2023-09-19T08:45:53;20.00;70.30
75719;DHT22;64340;48.534;-3.036;2023-09-19T08:48:28;20.10;70.70
75719;DHT22;64340;48.534;-3.036;2023-09-19T08:50:56;20.30;70.50
75719;DHT22;64340;48.534;-3.036;2023-09-19T08:53:34;20.20;70.70
75719;DHT22;64340;48.534;-3.036;2023-09-19T08:56:03;20.30;70.80
75719;DHT22;64340;48.534;-3.036;2023-09-19T08:58:31;20.30;70.80
75719;DHT22;64340;48.534;-3.036;2023-09-19T09:01:00;20.30;70.90
75719;DHT22;64340;48.534;-3.036;2023-09-19T09:03:27;20.30;71.10
75719;DHT22;64340;48.534;-3.036;2023-09-19T09:05:57;20.20;71.10
75719;DHT22;64340;48.534;-3.036;2023-09-19T09:08:23;20.20;71.10
75719;DHT22;64340;48.534;-3.036;2023-09-19T09:10:50;20.10;70.60
75719;DHT22;64340;48.534;-3.036;2023-09-19T09:13:15;20.10;70.30
75719;DHT22;64340;48.534;-3.036;2023-09-19T09:15:42;20.10;69.90
75719;DHT22;64340;48.534;-3.036;2023-09-19T09:18:10;20.10;70.00
75719;DHT22;64340;48.534;-3.036;2023-09-19T09:20:35;20.10;70.00
75719;DHT22;64340;48.534;-3.036;2023-09-19T09:23:01;20.10;70.00
75719;DHT22;64340;48.534;-3.036;2023-09-19T09:28:32;20.00;69.70
75719;DHT22;64340;48.534;-3.036;2023-09-19T09:30:58;20.00;69.90
75719;DHT22;64340;48.534;-3.036;2023-09-19T09:33:24;20.00;69.90
75719;DHT22;64340;48.534;-3.036;2023-09-19T09:35:51;20.00;70.00
75719;DHT22;64340;48.534;-3.036;2023-09-19T09:38:22;20.00;69.90
75719;DHT22;64340;48.534;-3.036;2023-09-19T09:40:56;20.00;70.10
75719;DHT22;64340;48.534;-3.036;2023-09-19T09:43:28;20.00;69.90
75719;DHT22;64340;48.534;-3.036;2023-09-19T09:48:57;20.00;70.30
75719;DHT22;64340;48.534;-3.036;2023-09-19T09:51:45;20.00;70.40
75719;DHT22;64340;48.534;-3.036;2023-09-19T09:54:23;20.00;70.50
75719;DHT22;64340;48.534;-3.036;2023-09-19T09:56:56;20.00;70.50
75719;DHT22;64340;48.534;-3.036;2023-09-19T10:02:09;20.10;70.40
75719;DHT22;64340;48.534;-3.036;2023-09-19T10:04:39;20.10;70.50
75719;DHT22;64340;48.534;-3.036;2023-09-19T10:07:30;20.10;70.50
75719;DHT22;64340;48.534;-3.036;2023-09-19T10:10:03;20.00;70.50
75719;DHT22;64340;48.534;-3.036;2023-09-19T10:12:45;20.10;70.30
75719;DHT22;64340;48.534;-3.036;2023-09-19T10:15:18;20.30;70.50
75719;DHT22;64340;48.534;-3.036;2023-09-19T10:17:46;20.30;70.80
75719;DHT22;64340;48.534;-3.036;2023-09-19T10:20:15;20.30;71.60
75719;DHT22;64340;48.534;-3.036;2023-09-19T10:23:03;20.30;71.30
75719;DHT22;64340;48.534;-3.036;2023-09-19T10:25:29;20.30;71.60
75719;DHT22;64340;48.534;-3.036;2023-09-19T10:28:00;20.30;71.40
75719;DHT22;64340;48.534;-3.036;2023-09-19T10:30:28;20.30;71.20
75719;DHT22;64340;48.534;-3.036;2023-09-19T10:33:02;20.30;71.10
75719;DHT22;64340;48.534;-3.036;2023-09-19T10:35:28;20.40;71.10
75719;DHT22;64340;48.534;-3.036;2023-09-19T10:37:54;20.50;71.00
75719;DHT22;64340;48.534;-3.036;2023-09-19T10:40:22;20.50;70.60
75719;DHT22;64340;48.534;-3.036;2023-09-19T10:42:55;20.50;70.70
75719;DHT22;64340;48.534;-3.036;2023-09-19T10:45:24;20.50;70.80
75719;DHT22;64340;48.534;-3.036;2023-09-19T10:47:51;20.50;70.20
75719;DHT22;64340;48.534;-3.036;2023-09-19T10:50:20;20.50;69.60
75719;DHT22;64340;48.534;-3.036;2023-09-19T10:52:49;20.50;69.80
75719;DHT22;64340;48.534;-3.036;2023-09-19T10:55:17;20.40;70.00
75719;DHT22;64340;48.534;-3.036;2023-09-19T10:57:47;20.40;70.10
75719;DHT22;64340;48.534;-3.036;2023-09-19T11:00:13;20.50;70.40
75719;DHT22;64340;48.534;-3.036;2023-09-19T11:05:32;20.50;70.40
75719;DHT22;64340;48.534;-3.036;2023-09-19T11:07:59;20.50;70.30
75719;DHT22;64340;48.534;-3.036;2023-09-19T11:10:48;20.50;70.40
75719;DHT22;64340;48.534;-3.036;2023-09-19T11:13:23;20.50;70.40
75719;DHT22;64340;48.534;-3.036;2023-09-19T11:26:44;20.50;70.20
75719;DHT22;64340;48.534;-3.036;2023-09-19T11:29:25;20.50;70.20
75719;DHT22;64340;48.534;-3.036;2023-09-19T11:31:51;20.50;70.20
75719;DHT22;64340;48.534;-3.036;2023-09-19T11:37:01;20.50;70.00
75719;DHT22;64340;48.534;-3.036;2023-09-19T11:39:29;20.50;69.80
75719;DHT22;64340;48.534;-3.036;2023-09-19T11:41:55;20.50;69.60
75719;DHT22;64340;48.534;-3.036;2023-09-19T11:46:52;20.50;69.60
75719;DHT22;64340;48.534;-3.036;2023-09-19T11:49:18;20.50;69.50
75719;DHT22;64340;48.534;-3.036;2023-09-19T11:51:52;20.50;69.60
75719;DHT22;64340;48.534;-3.036;2023-09-19T11:54:17;20.60;69.60
75719;DHT22;64340;48.534;-3.036;2023-09-19T11:56:50;20.60;69.30
75719;DHT22;64340;48.534;-3.036;2023-09-19T11:59:23;20.50;69.30
75719;DHT22;64340;48.534;-3.036;2023-09-19T12:01:53;20.50;69.30
75719;DHT22;64340;48.534;-3.036;2023-09-19T12:04:33;20.50;69.40
75719;DHT22;64340;48.534;-3.036;2023-09-19T12:06:59;20.50;69.50
75719;DHT22;64340;48.534;-3.036;2023-09-19T12:09:25;20.50;69.60
75719;DHT22;64340;48.534;-3.036;2023-09-19T12:11:50;20.50;69.60
75719;DHT22;64340;48.534;-3.036;2023-09-19T12:14:23;20.50;69.60
75719;DHT22;64340;48.534;-3.036;2023-09-19T12:16:57;20.50;69.60
75719;DHT22;64340;48.534;-3.036;2023-09-19T12:19:24;20.50;69.70
75719;DHT22;64340;48.534;-3.036;2023-09-19T12:21:54;20.50;69.70
75719;DHT22;64340;48.534;-3.036;2023-09-19T12:24:19;20.50;69.70
75719;DHT22;64340;48.534;-3.036;2023-09-19T12:26:45;20.50;69.80
75719;DHT22;64340;48.534;-3.036;2023-09-19T12:29:19;20.50;69.70
75719;DHT22;64340;48.534;-3.036;2023-09-19T12:31:48;20.50;69.70
75719;DHT22;64340;48.534;-3.036;2023-09-19T12:34:16;20.50;69.70
75719;DHT22;64340;48.534;-3.036;2023-09-19T12:36:42;20.50;69.80
75719;DHT22;64340;48.534;-3.036;2023-09-19T12:39:07;20.50;69.90
75719;DHT22;64340;48.534;-3.036;2023-09-19T12:41:34;20.50;69.90
75719;DHT22;64340;48.534;-3.036;2023-09-19T12:44:00;20.50;69.90
75719;DHT22;64340;48.534;-3.036;2023-09-19T12:46:26;20.50;69.90
75719;DHT22;64340;48.534;-3.036;2023-09-19T12:51:37;20.50;70.10
75719;DHT22;64340;48.534;-3.036;2023-09-19T12:54:03;20.50;70.10
75719;DHT22;64340;48.534;-3.036;2023-09-19T12:56:30;20.50;70.10
75719;DHT22;64340;48.534;-3.036;2023-09-19T12:59:05;20.50;70.30
75719;DHT22;64340;48.534;-3.036;2023-09-19T13:01:32;20.50;70.40
75719;DHT22;64340;48.534;-3.036;2023-09-19T13:04:17;20.50;70.40
75719;DHT22;64340;48.534;-3.036;2023-09-19T13:06:51;20.50;70.40
75719;DHT22;64340;48.534;-3.036;2023-09-19T13:09:18;20.50;70.40
75719;DHT22;64340;48.534;-3.036;2023-09-19T13:11:45;20.50;70.30
75719;DHT22;64340;48.534;-3.036;2023-09-19T13:16:59;20.50;70.20
75719;DHT22;64340;48.534;-3.036;2023-09-19T13:22:00;20.50;70.10
75719;DHT22;64340;48.534;-3.036;2023-09-19T13:24:26;20.50;70.10
75719;DHT22;64340;48.534;-3.036;2023-09-19T13:26:53;20.50;70.00
75719;DHT22;64340;48.534;-3.036;2023-09-19T13:29:18;20.40;70.00
75719;DHT22;64340;48.534;-3.036;2023-09-19T13:34:12;20.40;70.10
75719;DHT22;64340;48.534;-3.036;2023-09-19T13:36:41;20.40;70.20
75719;DHT22;64340;48.534;-3.036;2023-09-19T13:39:07;20.40;70.10
75719;DHT22;64340;48.534;-3.036;2023-09-19T13:41:34;20.40;70.30
75719;DHT22;64340;48.534;-3.036;2023-09-19T13:44:02;20.40;70.20
75719;DHT22;64340;48.534;-3.036;2023-09-19T13:46:28;20.40;70.30
75719;DHT22;64340;48.534;-3.036;2023-09-19T13:48:53;20.40;70.30
75719;DHT22;64340;48.534;-3.036;2023-09-19T13:51:20;20.40;70.40
75719;DHT22;64340;48.534;-3.036;2023-09-19T13:53:48;20.40;70.30
75719;DHT22;64340;48.534;-3.036;2023-09-19T13:56:14;20.40;70.40
75719;DHT22;64340;48.534;-3.036;2023-09-19T13:58:39;20.50;70.40
75719;DHT22;64340;48.534;-3.036;2023-09-19T14:01:07;20.50;70.40
75719;DHT22;64340;48.534;-3.036;2023-09-19T14:03:37;20.50;70.40
75719;DHT22;64340;48.534;-3.036;2023-09-19T14:06:03;20.50;70.50
75719;DHT22;64340;48.534;-3.036;2023-09-19T14:08:29;20.50;70.50
75719;DHT22;64340;48.534;-3.036;2023-09-19T14:10:55;20.50;70.40
75719;DHT22;64340;48.534;-3.036;2023-09-19T14:13:21;20.50;70.40
75719;DHT22;64340;48.534;-3.036;2023-09-19T14:15:47;20.50;70.40
75719;DHT22;64340;48.534;-3.036;2023-09-19T14:18:12;20.50;70.40
75719;DHT22;64340;48.534;-3.036;2023-09-19T14:20:38;20.50;70.40
75719;DHT22;64340;48.534;-3.036;2023-09-19T14:23:05;20.50;70.40
75719;DHT22;64340;48.534;-3.036;2023-09-19T14:25:33;20.50;70.40
75719;DHT22;64340;48.534;-3.036;2023-09-19T14:27:59;20.50;70.30
75719;DHT22;64340;48.534;-3.036;2023-09-19T14:30:24;20.50;70.40
75719;DHT22;64340;48.534;-3.036;2023-09-19T14:32:50;20.50;70.30
75719;DHT22;64340;48.534;-3.036;2023-09-19T14:35:16;20.50;70.40
75719;DHT22;64340;48.534;-3.036;2023-09-19T14:37:42;20.50;70.60
75719;DHT22;64340;48.534;-3.036;2023-09-19T14:40:08;20.50;70.60
75719;DHT22;64340;48.534;-3.036;2023-09-19T14:42:35;20.50;70.70
75719;DHT22;64340;48.534;-3.036;2023-09-19T14:45:02;20.50;70.70
75719;DHT22;64340;48.534;-3.036;2023-09-19T14:47:28;20.50;70.80
75719;DHT22;64340;48.534;-3.036;2023-09-19T14:49:53;20.50;70.90
75719;DHT22;64340;48.534;-3.036;2023-09-19T14:52:19;20.50;70.90
75719;DHT22;64340;48.534;-3.036;2023-09-19T14:54:44;20.50;70.90
75719;DHT22;64340;48.534;-3.036;2023-09-19T14:57:10;20.50;70.90
75719;DHT22;64340;48.534;-3.036;2023-09-19T14:59:38;20.50;71.00
75719;DHT22;64340;48.534;-3.036;2023-09-19T15:02:04;20.50;71.00
75719;DHT22;64340;48.534;-3.036;2023-09-19T15:04:29;20.50;71.10
75719;DHT22;64340;48.534;-3.036;2023-09-19T15:06:55;20.50;71.10
75719;DHT22;64340;48.534;-3.036;2023-09-19T15:09:21;20.40;71.20
75719;DHT22;64340;48.534;-3.036;2023-09-19T15:11:49;20.40;71.20
75719;DHT22;64340;48.534;-3.036;2023-09-19T15:14:15;20.40;71.20
75719;DHT22;64340;48.534;-3.036;2023-09-19T15:16:40;20.50;71.20
75719;DHT22;64340;48.534;-3.036;2023-09-19T15:19:09;20.40;71.20
75719;DHT22;64340;48.534;-3.036;2023-09-19T15:21:35;20.40;71.20
75719;DHT22;64340;48.534;-3.036;2023-09-19T15:24:03;20.50;71.20
75719;DHT22;64340;48.534;-3.036;2023-09-19T15:26:28;20.40;71.20
75719;DHT22;64340;48.534;-3.036;2023-09-19T15:28:55;20.50;71.20
75719;DHT22;64340;48.534;-3.036;2023-09-19T15:31:21;20.50;71.30
75719;DHT22;64340;48.534;-3.036;2023-09-19T15:33:46;20.40;71.40
75719;DHT22;64340;48.534;-3.036;2023-09-19T15:36:13;20.40;71.40
75719;DHT22;64340;48.534;-3.036;2023-09-19T15:38:58;20.50;71.40
75719;DHT22;64340;48.534;-3.036;2023-09-19T15:41:25;20.40;71.40
75719;DHT22;64340;48.534;-3.036;2023-09-19T15:43:51;20.40;71.50
75719;DHT22;64340;48.534;-3.036;2023-09-19T15:46:17;20.30;71.80
75719;DHT22;64340;48.534;-3.036;2023-09-19T15:48:43;20.30;72.10
75719;DHT22;64340;48.534;-3.036;2023-09-19T15:51:10;20.20;72.20
75719;DHT22;64340;48.534;-3.036;2023-09-19T15:53:46;20.30;72.40
75719;DHT22;64340;48.534;-3.036;2023-09-19T15:56:15;20.20;72.50
75719;DHT22;64340;48.534;-3.036;2023-09-19T15:58:45;20.30;72.60
75719;DHT22;64340;48.534;-3.036;2023-09-19T16:01:10;20.30;72.50
75719;DHT22;64340;48.534;-3.036;2023-09-19T16:03:43;20.20;72.50
75719;DHT22;64340;48.534;-3.036;2023-09-19T16:06:13;20.20;72.60
75719;DHT22;64340;48.534;-3.036;2023-09-19T16:08:40;20.20;72.50
75719;DHT22;64340;48.534;-3.036;2023-09-19T16:11:05;20.10;73.00